Time;durP1;ratioP1;P1;durP2;ratioP2;P2;SDS_P1;SDS_P2;PMS_P1;PMS_P2;Temp;Humidity;BMP_temperature;BMP_pressure;BME280_temperature;BME280_humidity;BME280_pressure;Samples;Min_cycle;Max_cycle;Signal;HPM_P1;HPM_P2
2022/03/05 00:00:06;;;;;;;22.97;14.57;;;;;;;-0.22;nan;99663.84;4981960;28;20458;-74
2022/03/05 00:02:36;;;;;;;36.05;24.42;;;;;;;-0.31;nan;99669.19;4979415;28;20888;-74
2022/03/05 00:05:02;;;;;;;25.80;18.83;;;;;;;-0.39;nan;99666.75;4982492;28;20738;-74
2022/03/05 00:07:27;;;;;;;32.70;20.10;;;;;;;-0.42;nan;99678.88;4963795;28;20306;-74
2022/03/05 00:09:53;;;;;;;29.57;19.63;;;;;;;-0.43;nan;99671.97;4986043;28;20243;-74
2022/03/05 00:12:19;;;;;;;24.33;17.23;;;;;;;-0.42;nan;99673.69;4984886;28;20207;-74
2022/03/05 00:14:44;;;;;;;31.90;17.73;;;;;;;-0.44;nan;99676.28;4985469;28;20464;-74
2022/03/05 00:17:10;;;;;;;28.90;17.13;;;;;;;-0.46;nan;99675.47;4985685;28;20637;-74
2022/03/05 00:19:35;;;;;;;25.47;15.47;;;;;;;-0.49;nan;99683.25;4987016;28;20846;-74
2022/03/05 00:22:02;;;;;;;25.07;16.33;;;;;;;-0.53;nan;99676.47;4985740;28;20212;-74
2022/03/05 00:24:28;;;;;;;31.70;18.65;;;;;;;-0.51;nan;99675.56;4986341;28;20226;-74
2022/03/05 00:26:54;;;;;;;25.53;17.50;;;;;;;-0.51;nan;99674.72;4985003;28;20199;-74
2022/03/05 00:29:20;;;;;;;25.25;15.80;;;;;;;-0.56;nan;99679.94;4985179;28;20572;-74
2022/03/05 00:31:45;;;;;;;33.00;18.47;;;;;;;-0.58;nan;99675.69;4984654;28;20204;-74
2022/03/05 00:34:11;;;;;;;22.10;16.50;;;;;;;-0.62;nan;99674.03;4982448;28;20254;-74
2022/03/05 00:36:38;;;;;;;26.48;15.98;;;;;;;-0.62;nan;99672.31;4983230;28;20614;-74
2022/03/05 00:39:04;;;;;;;23.02;16.42;;;;;;;-0.64;nan;99681.81;4984437;28;20326;-74
2022/03/05 00:41:30;;;;;;;23.00;13.18;;;;;;;-0.71;nan;99678.47;4985642;28;20307;-74
2022/03/05 00:43:55;;;;;;;23.83;17.73;;;;;;;-0.83;nan;99681.25;4985439;28;20295;-74
2022/03/05 00:46:20;;;;;;;26.10;16.83;;;;;;;-0.87;nan;99677.03;4985871;28;20195;-75
2022/03/05 00:48:46;;;;;;;30.13;15.03;;;;;;;-0.87;nan;99682.19;4984469;28;20601;-74
2022/03/05 00:51:11;;;;;;;19.30;16.10;;;;;;;-0.83;nan;99677.84;4986046;28;20211;-75
2022/03/05 00:53:37;;;;;;;17.70;13.80;;;;;;;-0.80;nan;99683.78;4985988;28;20314;-75
2022/03/05 00:56:03;;;;;;;26.90;16.53;;;;;;;-0.83;nan;99680.41;4986170;28;20253;-75
2022/03/05 00:58:28;;;;;;;26.00;17.67;;;;;;;-0.85;nan;99683.00;4986201;28;20232;-75
2022/03/05 01:00:53;;;;;;;22.77;13.23;;;;;;;-0.87;nan;99679.59;4986439;28;20590;-75
2022/03/05 01:03:19;;;;;;;26.20;15.50;;;;;;;-0.93;nan;99677.13;4985182;28;20806;-75
2022/03/05 01:05:44;;;;;;;24.57;14.87;;;;;;;-0.99;nan;99674.66;4986272;28;20216;-75
2022/03/05 01:08:10;;;;;;;24.50;15.30;;;;;;;-1.00;nan;99670.34;4986091;28;20330;-75
2022/03/05 01:10:36;;;;;;;27.33;16.60;;;;;;;-1.00;nan;99673.81;4985980;28;20227;-75
2022/03/05 01:13:03;;;;;;;23.30;16.83;;;;;;;-1.01;nan;99678.97;4958606;28;20304;-73
2022/03/05 01:15:28;;;;;;;27.88;18.50;;;;;;;-1.02;nan;99680.69;4956405;28;20824;-73
2022/03/05 01:17:54;;;;;;;25.13;16.80;;;;;;;-1.03;nan;99678.97;4956914;28;20243;-74
2022/03/05 01:20:19;;;;;;;28.77;17.30;;;;;;;-1.03;nan;99681.56;4950020;28;20205;-74
2022/03/05 01:22:45;;;;;;;22.80;15.13;;;;;;;-1.02;nan;99677.28;4958171;28;20208;-74
2022/03/05 01:25:10;;;;;;;27.10;17.40;;;;;;;-1.05;nan;99677.31;4951953;28;20251;-75
2022/03/05 01:27:36;;;;;;;24.20;15.73;;;;;;;-1.06;nan;99673.03;4954033;28;20236;-75
2022/03/05 01:30:02;;;;;;;30.47;17.83;;;;;;;-1.09;nan;99676.50;4956568;28;20201;-74
2022/03/05 01:32:27;;;;;;;28.08;15.32;;;;;;;-1.15;nan;99672.28;4954100;28;20223;-74
2022/03/05 01:34:53;;;;;;;22.00;13.90;;;;;;;-1.27;nan;99672.50;4948727;28;20209;-75
2022/03/05 01:37:19;;;;;;;27.17;15.50;;;;;;;-1.40;nan;99665.81;4958571;28;20245;-75
2022/03/05 01:39:45;;;;;;;24.13;16.37;;;;;;;-1.40;nan;99670.97;4960929;28;20494;-75
2022/03/05 01:42:10;;;;;;;24.73;15.83;;;;;;;-1.36;nan;99670.03;4954984;28;20453;-76
2022/03/05 01:44:36;;;;;;;28.00;16.73;;;;;;;-1.35;nan;99664.00;4958367;28;20204;-75
2022/03/05 01:47:03;;;;;;;26.63;14.82;;;;;;;-1.36;nan;99670.88;4962213;28;20207;-75
2022/03/05 01:49:30;;;;;;;25.80;15.02;;;;;;;-1.39;nan;99672.66;4948508;28;20244;-75
2022/03/05 01:51:56;;;;;;;25.80;14.90;;;;;;;-1.44;nan;99674.44;4959672;28;20200;-75
2022/03/05 01:54:23;;;;;;;26.00;14.50;;;;;;;-1.46;nan;99665.88;4957997;28;20228;-75
2022/03/05 01:56:49;;;;;;;25.50;13.82;;;;;;;-1.47;nan;99675.34;4960665;28;20763;-75
2022/03/05 01:59:15;;;;;;;31.27;15.70;;;;;;;-1.47;nan;99677.91;4956599;28;20658;-74
2022/03/05 02:01:41;;;;;;;24.55;17.10;;;;;;;-1.44;nan;99664.13;4948299;28;20495;-75
2022/03/05 02:04:07;;;;;;;21.37;15.90;;;;;;;-1.49;nan;99671.91;4954466;28;20223;-74
2022/03/05 02:06:33;;;;;;;20.02;13.88;;;;;;;-1.62;nan;99665.22;4950214;28;20197;-74
2022/03/05 02:08:58;;;;;;;23.63;15.40;;;;;;;-1.72;nan;99664.50;4953504;28;20227;-75
2022/03/05 02:11:25;;;;;;;23.13;14.50;;;;;;;-1.77;nan;99673.16;4950791;28;20452;-75
2022/03/05 02:13:51;;;;;;;26.60;16.23;;;;;;;-1.77;nan;99665.44;4945799;28;20263;-74
2022/03/05 02:16:18;;;;;;;27.63;16.33;;;;;;;-1.73;nan;99667.09;4947901;28;20223;-74
2022/03/05 02:18:48;;;;;;;22.30;14.50;;;;;;;-1.71;nan;99670.50;4949539;28;20905;-74
2022/03/05 02:21:15;;;;;;;23.98;15.98;;;;;;;-1.70;nan;99661.91;4957321;28;20236;-74
2022/03/05 02:23:40;;;;;;;27.50;15.82;;;;;;;-1.66;nan;99658.44;4952320;28;20912;-75
2022/03/05 02:26:06;;;;;;;22.93;14.17;;;;;;;-1.69;nan;99661.03;4945598;28;20288;-74
2022/03/05 02:28:33;;;;;;;23.67;14.20;;;;;;;-1.75;nan;99656.81;4947090;28;20263;-74
2022/03/05 02:30:59;;;;;;;27.80;18.60;;;;;;;-1.72;nan;99656.78;4955131;28;20485;-75
2022/03/05 02:33:25;;;;;;;25.77;14.80;;;;;;;-1.72;nan;99655.94;4957789;28;20267;-74
2022/03/05 02:35:51;;;;;;;24.33;14.52;;;;;;;-1.73;nan;99652.50;4956416;28;20271;-75
2022/03/05 02:38:18;;;;;;;21.13;12.60;;;;;;;-1.73;nan;99649.06;4955501;28;20724;-75
2022/03/05 02:40:45;;;;;;;22.50;14.40;;;;;;;-1.77;nan;99655.16;4949496;28;20263;-75
2022/03/05 02:43:11;;;;;;;25.67;15.07;;;;;;;-1.79;nan;99653.41;4944888;28;20263;-75
2022/03/05 02:45:38;;;;;;;23.17;16.17;;;;;;;-1.81;nan;99644.88;4934868;28;20260;-75
2022/03/05 02:48:06;;;;;;;24.42;14.07;;;;;;;-1.79;nan;99647.44;4934521;28;20236;-75
2022/03/05 02:50:32;;;;;;;26.05;15.65;;;;;;;-1.78;nan;99649.16;4948319;28;20204;-74
2022/03/05 02:52:57;;;;;;;25.47;15.90;;;;;;;-1.77;nan;99648.25;4945593;28;20280;-75
2022/03/05 02:55:23;;;;;;;25.67;15.47;;;;;;;-1.81;nan;99644.88;4960752;28;20224;-74
2022/03/05 02:57:48;;;;;;;20.73;13.90;;;;;;;-1.86;nan;99640.66;4962300;28;20755;-74
2022/03/05 03:00:15;;;;;;;22.20;14.30;;;;;;;-1.93;nan;99644.19;4957795;28;20213;-74
2022/03/05 03:02:41;;;;;;;22.52;13.48;;;;;;;-1.98;nan;99646.81;4957305;28;20228;-74
2022/03/05 03:05:06;;;;;;;27.57;13.70;;;;;;;-2.01;nan;99646.84;4959889;28;20227;-74
2022/03/05 03:07:33;;;;;;;25.25;16.65;;;;;;;-2.09;nan;99649.50;4953965;28;20224;-74
2022/03/05 03:09:58;;;;;;;26.57;13.80;;;;;;;-2.09;nan;99649.50;4949653;28;20548;-74
2022/03/05 03:12:27;;;;;;;21.20;13.87;;;;;;;-2.11;nan;99646.09;4947136;28;20236;-73
2022/03/05 03:14:52;;;;;;;19.60;13.95;;;;;;;-2.15;nan;99662.44;4954523;28;20514;-74
2022/03/05 03:17:18;;;;;;;26.13;14.07;;;;;;;-2.24;nan;99657.41;4953426;28;20225;-73
2022/03/05 03:19:43;;;;;;;22.57;14.27;;;;;;;-2.25;nan;99647.97;4944070;28;20693;-74
2022/03/05 03:22:09;;;;;;;26.87;13.33;;;;;;;-2.25;nan;99655.69;4957910;28;20204;-74
2022/03/05 03:24:34;;;;;;;29.33;16.70;;;;;;;-2.29;nan;99657.47;4949597;28;20221;-74
2022/03/05 03:27:00;;;;;;;18.90;13.40;;;;;;;-2.33;nan;99654.91;4946162;28;20621;-74
2022/03/05 03:29:25;;;;;;;24.07;14.13;;;;;;;-2.34;nan;99653.22;4946899;28;20217;-74
2022/03/05 03:31:51;;;;;;;22.90;11.97;;;;;;;-2.37;nan;99659.25;4949109;28;20220;-74
2022/03/05 03:34:17;;;;;;;23.20;13.30;;;;;;;-2.40;nan;99658.41;4946836;28;20399;-74
2022/03/05 03:36:42;;;;;;;23.50;14.40;;;;;;;-2.45;nan;99658.47;4942186;28;20583;-74
2022/03/05 03:39:07;;;;;;;24.47;15.23;;;;;;;-2.49;nan;99652.50;4946277;28;20228;-73
2022/03/05 03:41:33;;;;;;;24.33;15.00;;;;;;;-2.50;nan;99661.09;4955862;28;20673;-74
2022/03/05 03:43:59;;;;;;;21.80;13.70;;;;;;;-2.48;nan;99654.22;4955523;28;20216;-73
2022/03/05 03:46:24;;;;;;;27.80;15.70;;;;;;;-2.48;nan;99655.94;4948185;28;20204;-74
2022/03/05 03:48:49;;;;;;;28.30;13.80;;;;;;;-2.53;nan;99658.56;4951059;28;20251;-74
2022/03/05 03:51:15;;;;;;;24.67;14.43;;;;;;;-2.55;nan;99660.28;4948363;28;20337;-74
2022/03/05 03:53:40;;;;;;;25.77;13.53;;;;;;;-2.58;nan;99673.16;4952455;28;20224;-74
2022/03/05 03:56:06;;;;;;;28.37;14.27;;;;;;;-2.60;nan;99677.47;4953552;28;20260;-74
2022/03/05 03:58:31;;;;;;;22.53;14.57;;;;;;;-2.56;nan;99673.16;4950517;28;20290;-74
2022/03/05 04:00:56;;;;;;;25.07;13.50;;;;;;;-2.53;nan;99670.56;4954616;28;20212;-74
2022/03/05 04:03:22;;;;;;;25.17;14.70;;;;;;;-2.52;nan;99672.25;4959718;28;20696;-74
2022/03/05 04:05:47;;;;;;;21.77;12.90;;;;;;;-2.51;nan;99673.97;4951743;28;20203;-74
2022/03/05 04:10:56;;;;;;;19.48;12.27;;;;;;;-2.54;nan;99681.69;4954771;28;20200;-74
2022/03/05 04:13:22;;;;;;;22.40;13.60;;;;;;;-2.55;nan;99682.59;4953058;28;20210;-74
2022/03/05 04:15:48;;;;;;;19.00;12.80;;;;;;;-2.58;nan;99695.47;4959416;28;20286;-74
2022/03/05 04:18:13;;;;;;;21.90;13.13;;;;;;;-2.60;nan;99681.78;4958631;28;20537;-74
2022/03/05 04:20:39;;;;;;;21.07;14.30;;;;;;;-2.66;nan;99682.69;4955181;28;20207;-74
2022/03/05 04:23:04;;;;;;;25.87;14.50;;;;;;;-2.72;nan;99705.88;4952665;28;20672;-74
2022/03/05 04:25:30;;;;;;;20.30;12.27;;;;;;;-2.76;nan;99696.47;4959509;28;20207;-74
2022/03/05 04:27:55;;;;;;;24.13;13.27;;;;;;;-2.77;nan;99702.50;4945709;28;20228;-74
2022/03/05 04:30:21;;;;;;;25.37;14.30;;;;;;;-2.80;nan;99694.81;4946605;28;20208;-74
2022/03/05 04:32:46;;;;;;;29.67;19.90;;;;;;;-2.77;nan;99694.78;4952281;28;21047;-74
2022/03/05 04:35:12;;;;;;;31.27;17.47;;;;;;;-2.75;nan;99699.03;4949377;28;20229;-74
2022/03/05 04:37:38;;;;;;;23.77;13.70;;;;;;;-2.75;nan;99701.63;4954736;28;20221;-74
2022/03/05 04:40:05;;;;;;;22.63;13.50;;;;;;;-2.75;nan;99699.03;4950018;28;20464;-74
2022/03/05 04:42:30;;;;;;;21.85;13.88;;;;;;;-2.75;nan;99711.06;4956141;28;20208;-74
2022/03/05 04:44:56;;;;;;;19.50;13.87;;;;;;;-2.79;nan;99709.34;4954926;28;20215;-73
2022/03/05 04:47:22;;;;;;;20.98;12.65;;;;;;;-2.82;nan;99717.09;4954930;28;20347;-74
2022/03/05 04:49:48;;;;;;;19.30;12.90;;;;;;;-2.83;nan;99715.41;4937426;28;20202;-76
2022/03/05 04:52:14;;;;;;;23.35;14.65;;;;;;;-2.86;nan;99717.97;4949217;28;20284;-76
2022/03/05 04:54:40;;;;;;;23.35;14.65;;;;;;;-2.86;nan;99721.41;4935953;28;20224;-76
2022/03/05 04:57:06;;;;;;;22.97;12.43;;;;;;;-2.85;nan;99717.97;4961644;28;20236;-76
2022/03/05 04:59:31;;;;;;;24.48;14.65;;;;;;;-2.87;nan;99718.84;4957451;28;20212;-76
2022/03/05 05:01:57;;;;;;;26.10;16.50;;;;;;;-2.88;nan;99712.84;4956546;28;20475;-76
2022/03/05 05:04:23;;;;;;;19.23;14.30;;;;;;;-2.92;nan;99726.56;4952832;28;20619;-76
2022/03/05 05:06:48;;;;;;;26.95;16.13;;;;;;;-2.92;nan;99729.16;4955840;28;20196;-76
2022/03/05 05:09:14;;;;;;;21.67;15.47;;;;;;;-2.87;nan;99729.13;4960150;28;20235;-77
2022/03/05 05:11:40;;;;;;;32.40;13.73;;;;;;;-2.83;nan;99726.53;4956797;28;20208;-76
2022/03/05 05:14:06;;;;;;;22.67;14.35;;;;;;;-2.89;nan;99731.69;4954263;28;20339;-76
2022/03/05 05:16:31;;;;;;;25.57;14.63;;;;;;;-2.94;nan;99726.59;4955445;28;20319;-77
2022/03/05 05:21:41;;;;;;;22.85;13.07;;;;;;;-3.04;nan;99739.53;4953536;28;20242;-76
2022/03/05 05:24:06;;;;;;;28.50;16.13;;;;;;;-3.09;nan;99730.97;4955922;28;20324;-76
2022/03/05 05:26:32;;;;;;;22.40;14.50;;;;;;;-3.08;nan;99730.97;4953311;28;20212;-76
2022/03/05 05:28:57;;;;;;;20.83;15.57;;;;;;;-3.09;nan;99738.69;4957039;28;20295;-76
2022/03/05 05:31:22;;;;;;;25.20;15.20;;;;;;;-3.08;nan;99741.22;4954840;28;20475;-76
2022/03/05 05:33:50;;;;;;;22.80;14.10;;;;;;;-3.10;nan;99732.72;4953240;28;20574;-76
2022/03/05 05:36:15;;;;;;;21.15;14.45;;;;;;;-3.13;nan;99725.03;4950702;28;20228;-76
2022/03/05 05:38:41;;;;;;;21.30;13.80;;;;;;;-3.19;nan;99737.88;4960596;28;20853;-76
2022/03/05 05:41:07;;;;;;;17.73;12.80;;;;;;;-3.21;nan;99737.06;4956270;28;20204;-76
2022/03/05 05:43:33;;;;;;;25.80;13.70;;;;;;;-3.26;nan;99742.22;4935935;28;20715;-76
2022/03/05 05:45:58;;;;;;;23.30;12.10;;;;;;;-3.27;nan;99734.50;4950306;28;20216;-76
2022/03/05 05:48:23;;;;;;;21.90;13.57;;;;;;;-3.30;nan;99739.66;4946080;28;20249;-76
2022/03/05 05:50:49;;;;;;;24.80;14.23;;;;;;;-3.31;nan;99745.66;4951183;28;20235;-76
2022/03/05 05:53:14;;;;;;;20.87;13.90;;;;;;;-3.31;nan;99745.66;4949876;28;20217;-76
2022/03/05 05:55:40;;;;;;;24.53;13.37;;;;;;;-3.36;nan;99743.97;4951036;28;20328;-76
2022/03/05 05:58:05;;;;;;;25.87;13.17;;;;;;;-3.42;nan;99751.72;4948619;28;20311;-76
2022/03/05 06:00:31;;;;;;;22.90;12.90;;;;;;;-3.47;nan;99743.16;4948262;28;20255;-76
2022/03/05 06:02:57;;;;;;;28.03;13.67;;;;;;;-3.52;nan;99747.47;4942042;28;20204;-76
2022/03/05 06:05:22;;;;;;;20.95;12.00;;;;;;;-3.58;nan;99750.91;4926386;28;20670;-76
2022/03/05 06:07:48;;;;;;;22.13;13.53;;;;;;;-3.59;nan;99748.38;4946442;28;20220;-76
2022/03/05 06:10:13;;;;;;;20.90;13.30;;;;;;;-3.58;nan;99755.22;4944608;28;20208;-76
2022/03/05 06:12:39;;;;;;;23.63;16.17;;;;;;;-3.54;nan;99761.16;4951735;28;20937;-76
2022/03/05 06:15:08;;;;;;;22.70;14.57;;;;;;;-3.54;nan;99762.03;4954658;28;20285;-76
2022/03/05 06:17:34;;;;;;;23.33;14.20;;;;;;;-3.53;nan;99762.91;4951978;28;21384;-76
2022/03/05 06:19:59;;;;;;;24.33;13.37;;;;;;;-3.60;nan;99764.63;4959139;28;20220;-76
2022/03/05 06:22:25;;;;;;;23.17;13.40;;;;;;;-3.71;nan;99762.09;4960895;28;20216;-76
2022/03/05 06:24:50;;;;;;;18.73;12.73;;;;;;;-3.77;nan;99769.81;4953385;28;20207;-77
2022/03/05 06:27:15;;;;;;;23.77;15.20;;;;;;;-3.73;nan;99765.53;4954730;28;20228;-76
2022/03/05 06:29:41;;;;;;;20.80;13.03;;;;;;;-3.71;nan;99764.66;4952667;28;20206;-76
2022/03/05 06:32:07;;;;;;;20.70;14.03;;;;;;;-3.68;nan;99771.50;4959199;28;20204;-76
2022/03/05 06:34:32;;;;;;;28.13;13.68;;;;;;;-3.68;nan;99774.06;4958940;28;20238;-76
2022/03/05 06:37:00;;;;;;;26.07;15.53;;;;;;;-3.70;nan;99779.22;4955619;28;20223;-76
2022/03/05 06:39:26;;;;;;;19.27;12.95;;;;;;;-3.73;nan;99779.19;4956463;28;20345;-75
2022/03/05 06:41:51;;;;;;;22.13;13.67;;;;;;;-3.73;nan;99780.91;4954599;28;20200;-76
2022/03/05 06:44:17;;;;;;;18.37;13.00;;;;;;;-3.68;nan;99785.19;4953424;28;20550;-75
2022/03/05 06:46:42;;;;;;;23.87;14.77;;;;;;;-3.63;nan;99785.19;4955658;28;20201;-76
2022/03/05 06:49:08;;;;;;;18.80;12.63;;;;;;;-3.59;nan;99790.31;4956502;28;20245;-76
2022/03/05 06:51:33;;;;;;;18.63;12.07;;;;;;;-3.56;nan;99789.44;4952571;28;20287;-76
2022/03/05 06:53:59;;;;;;;22.83;12.20;;;;;;;-3.52;nan;99790.28;4957322;28;20212;-75
2022/03/05 06:56:24;;;;;;;24.17;13.60;;;;;;;-3.47;nan;99799.66;4958943;28;20228;-76
2022/03/05 06:58:50;;;;;;;20.87;14.57;;;;;;;-3.39;nan;99797.91;4959438;28;20236;-75
2022/03/05 07:01:15;;;;;;;23.13;13.80;;;;;;;-3.31;nan;99797.88;4956098;28;20651;-76
2022/03/05 07:03:41;;;;;;;25.27;13.50;;;;;;;-3.25;nan;99800.44;4955524;28;20221;-76
2022/03/05 07:06:06;;;;;;;22.23;13.00;;;;;;;-3.17;nan;99800.41;4951950;28;20208;-75
2022/03/05 07:08:32;;;;;;;25.00;13.43;;;;;;;-3.05;nan;99799.47;4952219;28;20231;-76
2022/03/05 07:10:57;;;;;;;24.83;12.70;;;;;;;-2.95;nan;99806.25;4953986;28;20593;-76
2022/03/05 07:13:23;;;;;;;21.37;11.40;;;;;;;-2.86;nan;99806.22;4957149;28;20204;-76
2022/03/05 07:15:48;;;;;;;22.03;12.60;;;;;;;-2.77;nan;99807.88;4954484;28;20295;-76
2022/03/05 07:18:14;;;;;;;27.80;13.93;;;;;;;-2.66;nan;99806.09;4954203;28;20227;-76
2022/03/05 07:20:39;;;;;;;19.63;11.17;;;;;;;-2.56;nan;99804.31;4955093;28;20212;-75
2022/03/05 07:23:06;;;;;;;26.13;13.10;;;;;;;-2.46;nan;99814.53;4951000;28;20203;-76
2022/03/05 07:25:39;;;;;;;17.75;11.38;;;;;;;-2.34;nan;99815.31;4951498;28;20212;-75
2022/03/05 07:28:05;;;;;;;21.92;13.05;;;;;;;-2.24;nan;99814.38;4939824;28;20228;-75
2022/03/05 07:30:30;;;;;;;23.63;12.07;;;;;;;-2.18;nan;99811.72;4954635;28;20291;-75
2022/03/05 07:32:56;;;;;;;30.10;17.15;;;;;;;-2.07;nan;99806.50;4949552;28;20625;-75
2022/03/05 07:35:21;;;;;;;19.10;13.90;;;;;;;-2.01;nan;99809.84;4951969;28;20324;-76
2022/03/05 07:37:47;;;;;;;20.37;12.73;;;;;;;-1.94;nan;99815.81;4954392;28;20231;-76
2022/03/05 07:40:12;;;;;;;21.83;12.87;;;;;;;-1.84;nan;99813.97;4954339;28;20748;-76
2022/03/05 07:42:38;;;;;;;25.63;13.47;;;;;;;-1.76;nan;99814.75;4951500;28;20209;-76
2022/03/05 07:45:03;;;;;;;23.53;13.57;;;;;;;-1.68;nan;99809.53;4953072;28;20307;-77
2022/03/05 07:47:29;;;;;;;18.87;12.30;;;;;;;-1.61;nan;99812.03;4950859;28;20760;-76
2022/03/05 07:49:54;;;;;;;25.93;13.53;;;;;;;-1.53;nan;99818.81;4956219;28;20700;-77
2022/03/05 07:52:20;;;;;;;22.87;13.07;;;;;;;-1.45;nan;99822.16;4954026;28;20219;-76
2022/03/05 07:54:46;;;;;;;20.00;12.23;;;;;;;-1.39;nan;99817.78;4950796;28;21392;-77
2022/03/05 07:57:11;;;;;;;24.83;11.97;;;;;;;-1.30;nan;99824.53;4950446;28;20256;-77
2022/03/05 07:59:36;;;;;;;261.00;56.13;;;;;;;-1.22;nan;99825.31;4953465;28;20209;-76
2022/03/05 08:02:02;;;;;;;58.60;21.27;;;;;;;-1.14;nan;99820.91;4956095;28;20566;-77
2022/03/05 08:04:28;;;;;;;20.73;14.10;;;;;;;-1.06;nan;99825.97;4932493;28;20696;-77
2022/03/05 08:06:53;;;;;;;23.07;13.17;;;;;;;-0.99;nan;99824.19;4954262;28;20455;-77
2022/03/05 08:09:19;;;;;;;20.33;12.27;;;;;;;-0.93;nan;99821.50;4955751;28;20208;-76
2022/03/05 08:11:44;;;;;;;20.57;12.70;;;;;;;-0.87;nan;99828.31;4954494;28;20212;-76
2022/03/05 08:14:10;;;;;;;24.10;13.10;;;;;;;-0.80;nan;99825.63;4952517;28;21485;-76
2022/03/05 08:16:35;;;;;;;18.40;12.97;;;;;;;-0.74;nan;99828.13;4932801;28;20233;-76
2022/03/05 08:19:01;;;;;;;24.17;13.13;;;;;;;-0.65;nan;99826.28;4945856;28;20236;-76
2022/03/05 08:21:29;;;;;;;22.27;14.20;;;;;;;-0.57;nan;99825.28;4956419;28;20213;-76
2022/03/05 08:23:55;;;;;;;19.88;12.07;;;;;;;-0.45;nan;99830.28;4953854;28;20201;-76
2022/03/05 08:26:21;;;;;;;22.08;14.38;;;;;;;-0.01;nan;99823.53;4945030;28;20220;-76
2022/03/05 08:28:46;;;;;;;14.73;11.50;;;;;;;1.02;nan;99821.56;4953951;28;20221;-76
2022/03/05 08:31:12;;;;;;;22.10;13.57;;;;;;;2.34;nan;99814.97;4954530;28;20345;-76
2022/03/05 08:33:40;;;;;;;17.17;11.67;;;;;;;3.51;nan;99808.13;4958393;28;20497;-76
2022/03/05 08:36:07;;;;;;;20.42;12.15;;;;;;;4.51;nan;99798.69;4954193;28;20252;-77
2022/03/05 08:38:34;;;;;;;27.33;10.77;;;;;;;5.46;nan;99792.53;4957124;28;20235;-77
2022/03/05 08:41:00;;;;;;;23.30;14.60;;;;;;;6.23;nan;99785.03;4960598;28;20914;-75
2022/03/05 08:43:26;;;;;;;15.65;12.25;;;;;;;6.85;nan;99778.78;4961817;28;20577;-76
2022/03/05 08:45:52;;;;;;;16.90;10.67;;;;;;;7.43;nan;99782.22;4956976;28;20279;-77
2022/03/05 08:48:18;;;;;;;20.15;12.07;;;;;;;7.80;nan;99767.34;4955187;28;21091;-76
2022/03/05 08:50:44;;;;;;;22.40;12.10;;;;;;;8.27;nan;99764.13;4960406;28;20578;-78
2022/03/05 08:53:09;;;;;;;14.87;11.80;;;;;;;8.51;nan;99762.03;4958654;28;20208;-77
2022/03/05 08:55:35;;;;;;;16.43;11.60;;;;;;;8.83;nan;99768.13;4954458;28;20583;-75
2022/03/05 08:58:00;;;;;;;17.70;11.50;;;;;;;9.18;nan;99765.38;4955737;28;20236;-77
2022/03/05 09:00:26;;;;;;;14.97;10.83;;;;;;;9.49;nan;99756.66;4954012;28;20216;-75
2022/03/05 09:02:52;;;;;;;21.50;14.80;;;;;;;9.93;nan;99756.69;4959430;28;20570;-76
2022/03/05 09:05:18;;;;;;;17.13;13.30;;;;;;;9.97;nan;99752.97;4956245;28;20316;-76
2022/03/05 09:07:44;;;;;;;52.13;28.23;;;;;;;9.87;nan;99751.81;4957783;28;20495;-77
2022/03/05 09:10:10;;;;;;;22.15;10.90;;;;;;;10.01;nan;99753.63;4962079;28;20207;-75
2022/03/05 09:12:36;;;;;;;17.50;11.25;;;;;;;10.28;nan;99756.41;4957007;28;20209;-76
2022/03/05 09:15:02;;;;;;;14.50;11.13;;;;;;;10.43;nan;99743.31;4959182;28;20271;-76
2022/03/05 09:17:27;;;;;;;20.63;12.75;;;;;;;10.58;nan;99743.19;4964617;28;20256;-76
2022/03/05 09:19:53;;;;;;;20.67;11.77;;;;;;;10.20;nan;99738.47;4956856;28;20219;-76
2022/03/05 09:22:20;;;;;;;15.53;12.67;;;;;;;10.07;nan;99736.66;4963210;28;20632;-76
2022/03/05 09:24:45;;;;;;;16.88;11.70;;;;;;;9.86;nan;99736.19;4958830;28;20913;-75
2022/03/05 09:27:11;;;;;;;13.23;9.80;;;;;;;9.67;nan;99736.41;4956735;28;20220;-76
2022/03/05 09:29:36;;;;;;;20.00;12.48;;;;;;;9.64;nan;99737.44;4953532;28;20232;-76
2022/03/05 09:32:03;;;;;;;16.97;11.00;;;;;;;9.59;nan;99738.63;4956990;28;20247;-75
2022/03/05 09:34:29;;;;;;;14.82;10.68;;;;;;;9.37;nan;99724.13;4950401;28;20271;-75
2022/03/05 09:36:54;;;;;;;17.77;11.68;;;;;;;8.96;nan;99726.41;4957567;28;20226;-75
2022/03/05 09:39:21;;;;;;;15.07;10.27;;;;;;;8.99;nan;99727.09;4950472;28;20692;-76
2022/03/05 09:41:47;;;;;;;17.38;12.43;;;;;;;9.03;nan;99723.38;4956904;28;20204;-77
2022/03/05 09:44:12;;;;;;;24.00;21.30;;;;;;;8.99;nan;99727.09;4954030;28;20201;-74
2022/03/05 09:46:38;;;;;;;11.82;9.40;;;;;;;8.85;nan;99729.63;4951864;28;20209;-75
2022/03/05 09:49:04;;;;;;;14.17;9.40;;;;;;;8.50;nan;99732.34;4955136;28;20525;-75
2022/03/05 09:51:31;;;;;;;14.45;9.77;;;;;;;8.26;nan;99721.38;4952276;28;20208;-75
2022/03/05 09:53:57;;;;;;;14.07;8.32;;;;;;;8.00;nan;99720.13;4954605;28;20689;-76
2022/03/05 09:56:23;;;;;;;10.90;7.70;;;;;;;7.72;nan;99724.16;4951631;28;20236;-75
2022/03/05 09:58:50;;;;;;;12.57;9.00;;;;;;;7.32;nan;99720.03;4956733;28;20259;-75
2022/03/05 10:01:16;;;;;;;13.37;9.10;;;;;;;6.96;nan;99725.22;4953792;28;20943;-76
2022/03/05 10:03:47;;;;;;;13.93;10.30;;;;;;;6.83;nan;99724.94;4954766;28;20853;-74
2022/03/05 10:06:15;;;;;;;12.77;9.65;;;;;;;6.72;nan;99720.22;4950484;28;20209;-74
2022/03/05 10:08:40;;;;;;;13.15;9.07;;;;;;;6.61;nan;99722.47;4952414;28;20225;-74
2022/03/05 10:11:09;;;;;;;11.30;9.67;;;;;;;6.58;nan;99714.78;4953430;28;20264;-75
2022/03/05 10:13:36;;;;;;;44.88;11.68;;;;;;;6.65;nan;99713.59;4951413;28;20303;-74
2022/03/05 10:16:04;;;;;;;26.98;11.60;;;;;;;6.71;nan;99715.09;4954195;28;20697;-74
2022/03/05 10:18:34;;;;;;;20.13;9.65;;;;;;;6.75;nan;99708.78;4958506;28;20248;-74
2022/03/05 10:21:01;;;;;;;9.95;8.63;;;;;;;6.74;nan;99705.34;4949304;28;20290;-76
2022/03/05 10:23:30;;;;;;;11.20;7.43;;;;;;;6.80;nan;99709.41;4946824;28;20578;-74
2022/03/05 10:25:56;;;;;;;9.80;7.75;;;;;;;6.87;nan;99710.84;4957436;28;20270;-76
2022/03/05 10:28:25;;;;;;;13.17;8.63;;;;;;;6.95;nan;99702.66;4951625;28;20224;-74
2022/03/05 10:30:53;;;;;;;11.63;7.90;;;;;;;7.08;nan;99698.53;4954161;28;20542;-75
2022/03/05 10:33:29;;;;;;;20.20;8.60;;;;;;;7.18;nan;99691.94;4958830;28;20228;-74
2022/03/05 10:35:56;;;;;;;11.18;7.80;;;;;;;7.18;nan;99697.16;4939315;28;20236;-74
2022/03/05 10:38:22;;;;;;;12.15;7.13;;;;;;;7.22;nan;99693.50;4950343;28;20255;-76
2022/03/05 10:40:55;;;;;;;40.60;11.90;;;;;;;7.26;nan;99688.94;4950993;28;20196;-75
2022/03/05 10:43:22;;;;;;;9.82;7.70;;;;;;;7.19;nan;99690.19;4953562;28;20854;-75
2022/03/05 10:45:53;;;;;;;11.07;7.25;;;;;;;7.14;nan;99694.78;4961804;28;20207;-75
2022/03/05 10:48:29;;;;;;;10.60;7.82;;;;;;;7.19;nan;99692.81;4957639;28;20243;-75
2022/03/05 10:50:58;;;;;;;12.20;7.78;;;;;;;7.18;nan;99694.53;4955598;28;20212;-75
2022/03/05 10:53:35;;;;;;;8.07;6.60;;;;;;;7.29;nan;99692.28;4953907;28;20215;-76
2022/03/05 10:56:30;;;;;;;9.07;6.13;;;;;;;7.37;nan;99696.25;4963153;28;20236;-75
2022/03/05 10:59:09;;;;;;;8.73;6.63;;;;;;;7.39;nan;99687.44;4955679;28;20736;-74
2022/03/05 11:01:40;;;;;;;7.07;6.25;;;;;;;7.33;nan;99687.75;4961438;28;20209;-74
2022/03/05 11:04:07;;;;;;;17.15;6.47;;;;;;;7.32;nan;99692.13;4953104;28;20323;-74
2022/03/05 11:06:37;;;;;;;9.07;4.68;;;;;;;7.30;nan;99682.66;4952313;28;20204;-74
2022/03/05 11:09:03;;;;;;;8.40;5.85;;;;;;;7.31;nan;99685.19;4951710;28;20850;-74
2022/03/05 11:11:30;;;;;;;8.35;4.90;;;;;;;7.38;nan;99682.31;4961188;28;20212;-75
2022/03/05 11:13:56;;;;;;;9.93;6.10;;;;;;;7.47;nan;99681.84;4954743;28;20231;-74
2022/03/05 11:16:21;;;;;;;7.57;5.23;;;;;;;7.53;nan;99676.28;4955317;28;20232;-74
2022/03/05 11:18:47;;;;;;;10.00;5.27;;;;;;;7.63;nan;99674.91;4955995;28;20232;-74
2022/03/05 11:21:13;;;;;;;6.83;4.93;;;;;;;7.69;nan;99678.97;4952937;28;20233;-75
2022/03/05 11:23:50;;;;;;;6.73;4.93;;;;;;;7.69;nan;99678.97;4955459;28;20466;-80
2022/03/05 11:26:17;;;;;;;10.18;5.78;;;;;;;7.74;nan;99679.59;4951091;28;20204;-75
2022/03/05 11:28:48;;;;;;;12.75;7.15;;;;;;;7.73;nan;99665.69;4956828;28;20230;-75
2022/03/05 11:31:18;;;;;;;8.38;5.40;;;;;;;7.75;nan;99663.84;4953451;28;20487;-75
2022/03/05 11:33:45;;;;;;;6.63;4.70;;;;;;;7.75;nan;99660.41;4953291;28;20259;-75
2022/03/05 11:36:30;;;;;;;6.93;5.18;;;;;;;7.77;nan;99666.38;4950840;28;20212;-75